createdAt,value
2019-05-23T00:04:18.489Z,5.60
2019-05-23T00:19:18.711Z,5.50
2019-05-23T00:34:18.779Z,5.30
2019-05-23T00:49:18.998Z,5.90
2019-05-23T01:04:19.132Z,6.00
2019-05-23T01:19:19.310Z,6.10
2019-05-23T01:34:19.476Z,7.40
2019-05-23T01:49:19.642Z,8.00
2019-05-23T02:04:19.825Z,8.70
2019-05-23T02:19:20.053Z,8.20
2019-05-23T02:34:20.178Z,10.00
2019-05-23T02:49:20.468Z,10.80
2019-05-23T03:04:20.608Z,9.90
2019-05-23T03:19:20.710Z,11.70
2019-05-23T03:34:20.993Z,11.50
2019-05-23T03:49:21.197Z,11.90
2019-05-23T04:04:21.485Z,11.70
2019-05-23T04:19:21.661Z,14.10
2019-05-23T04:34:21.810Z,11.70
2019-05-23T04:49:22.022Z,12.00
2019-05-23T05:04:22.175Z,10.10
2019-05-23T05:19:22.338Z,8.70
2019-05-23T05:34:22.510Z,7.50
2019-05-23T05:49:22.729Z,7.30
2019-05-23T06:04:22.898Z,7.10
2019-05-23T06:19:23.062Z,6.30
2019-05-23T06:34:23.253Z,5.00
2019-05-23T06:49:23.420Z,3.90
2019-05-23T07:04:23.546Z,2.00
2019-05-23T07:19:23.755Z,1.50
2019-05-23T07:34:23.960Z,1.60
2019-05-23T07:49:24.177Z,1.80
2019-05-23T08:04:24.948Z,1.80
2019-05-23T08:19:25.609Z,1.90
2019-05-23T08:34:40.776Z,2.40
2019-05-23T08:49:31.022Z,2.80
2019-05-23T09:04:31.239Z,2.30
2019-05-23T09:19:34.301Z,2.10
2019-05-23T09:34:35.882Z,2.20
2019-05-23T09:49:36.074Z,2.00
2019-05-23T10:04:36.310Z,1.80
2019-05-23T10:19:36.512Z,2.10
2019-05-23T10:34:36.604Z,3.10
2019-05-23T10:49:36.729Z,2.70
2019-05-23T11:04:36.860Z,2.10
2019-05-23T11:19:37.138Z,1.40
2019-05-23T11:34:37.216Z,1.80
2019-05-23T11:49:37.923Z,4.50
2019-05-23T12:04:38.082Z,1.20
2019-05-23T12:19:38.189Z,1.10
2019-05-23T12:34:38.270Z,1.40
2019-05-23T12:49:38.465Z,17.10
2019-05-23T13:04:38.590Z,1.20
2019-05-23T13:19:38.767Z,1.00
2019-05-23T13:34:38.923Z,1.20
2019-05-23T13:49:39.155Z,0.80
2019-05-23T14:04:39.269Z,0.70
2019-05-23T14:19:39.514Z,0.80
2019-05-23T14:34:39.706Z,1.00
2019-05-23T14:49:39.881Z,0.70
2019-05-23T15:04:40.002Z,0.70
2019-05-23T15:19:44.858Z,0.90
2019-05-23T15:34:45.236Z,0.80
2019-05-23T15:49:45.473Z,0.60
2019-05-23T16:04:45.615Z,0.90
2019-05-23T16:19:45.833Z,0.60
2019-05-23T16:34:46.037Z,0.80
2019-05-23T16:49:46.268Z,0.60
2019-05-23T17:04:46.439Z,0.70
2019-05-23T17:19:46.596Z,0.90
2019-05-23T17:34:46.766Z,1.40
2019-05-23T17:49:46.914Z,1.60
2019-05-23T18:04:47.158Z,1.40
2019-05-23T18:19:47.175Z,1.00
2019-05-23T18:34:47.403Z,1.40
2019-05-23T18:49:47.519Z,1.70
2019-05-23T19:04:47.716Z,4.50
2019-05-23T19:19:47.926Z,3.40
2019-05-23T19:34:48.114Z,3.00
2019-05-23T19:49:48.298Z,3.10
2019-05-23T20:04:48.433Z,3.70
2019-05-23T20:19:50.536Z,3.20
2019-05-23T20:34:50.840Z,3.70
2019-05-23T20:49:51.014Z,3.90
2019-05-23T21:04:51.729Z,4.00
2019-05-23T21:19:51.936Z,3.70
2019-05-23T21:34:52.159Z,3.70
2019-05-23T21:49:52.343Z,5.30
2019-05-23T22:04:52.574Z,4.60
2019-05-23T22:19:52.794Z,4.60
2019-05-23T22:34:52.887Z,5.50
2019-05-23T22:49:53.088Z,5.20
2019-05-23T23:04:53.318Z,6.30
2019-05-23T23:19:53.430Z,7.50
2019-05-23T23:34:53.542Z,8.90
2019-05-23T23:49:53.735Z,8.00
